Clinton, IA

10:16 AM CST on November 24, 2014 (GMT -0600)
Mayer Farm @ Eagle Point | Change Station
CLOSE
Current Station
Personal Weather Station
Location: Clinton, IA
Elevation: 745 ft
Nearby Weather Stations
Active Advisory: Winter Weather Advisory Active Notice: Record Report

Elev 745 ft 41.89 °N, 90.19 °W | Updated 9 minutes ago

Snow
Snow
29.2 °F
Feels Like 15 °F
N
24.0
Wind Variable Wind from WSW
Gusts 27.0 mph

Today
High -- | Low -- °F
--% Chance of Precip.
Yesterday
High -- | Low -- °F
Precip. -- in
7:01 AM 4:33 PM
Waxing Crescent, 6% visible
Pressure 29.39 in
Visibility 1.0 miles
Clouds Overcast 800 ft
Windchill 15 °F
Dew Point 29 °F
Humidity 97%
Rainfall 0.02 in
Snow Depth Not available.
UV 1 out of 12
Pollen .10 out of 12
Air Quality Not available.
Flu Activity Not available.
METAR KCWI 241555Z AUTO 28022KT 1SM OVC008 M02/M04 A2939 RMK AO1

More Conditions Fewer Conditions

Pressure 29.39 in
Visibility 1.0 miles
Clouds Overcast 800 ft
Windchill 15 °F
Dew Point 29 °F
Humidity 97%
Rainfall 0.02 in
Snow Depth Not available.
UV 1 out of 12
Pollen .10 out of 12
Air Quality Not available.
Flu Activity Not available.
METAR KCWI 241555Z AUTO 28022KT 1SM OVC008 M02/M04 A2939 RMK AO1

More Conditions Fewer Conditions

10-Day Weather Forecast

Almanac

Astronomy

Nov. 24, 2014 Rise Set
Actual Time
Civil Twilight
Nautical Twilight
Astronomical Twilight
Moon
Length of Visible Light
Length of Day
Tomorrow will be .
, % of the Moon is Illuminated

Today's Extremes

State Highs State Lows

Community

WunderPhotos

Upload Photos

1,773,364 photos uploaded!

WunderBlogs® & News

Nearby

Air Quality

  Air Quality AQ Index Pollutant
Not available.

Snow Depth

Station Depth Elevation

Earthquake Activity

City Distance Mag. Time & Date
Minimum magnitude displayed is 2.5.

Coastal Water Temperatures

Place Temperature

Nearby Weather Stations